sensor_id;sensor_type;location;lat;lon;timestamp;pressure;altitude;pressure_sealevel;temperature;humidity
22047;BME280;11187;49.412;20.956;2023-05-18T00:02:16;95364.75;;;8.41;100.00
22047;BME280;11187;49.412;20.956;2023-05-18T00:05:06;95361.34;;;8.41;100.00
22047;BME280;11187;49.412;20.956;2023-05-18T00:07:42;95368.97;;;8.42;100.00
22047;BME280;11187;49.412;20.956;2023-05-18T00:10:28;95367.28;;;8.46;100.00
22047;BME280;11187;49.412;20.956;2023-05-18T00:13:02;95363.00;;;8.45;100.00
22047;BME280;11187;49.412;20.956;2023-05-18T00:15:48;95365.56;;;8.46;100.00
22047;BME280;11187;49.412;20.956;2023-05-18T00:18:22;95368.94;;;8.48;100.00
22047;BME280;11187;49.412;20.956;2023-05-18T00:21:08;95365.56;;;8.46;100.00
22047;BME280;11187;49.412;20.956;2023-05-18T00:23:42;95357.06;;;8.47;100.00
22047;BME280;11187;49.412;20.956;2023-05-18T00:26:28;95362.16;;;8.47;100.00
22047;BME280;11187;49.412;20.956;2023-05-18T00:29:02;95362.13;;;8.49;100.00
22047;BME280;11187;49.412;20.956;2023-05-18T00:31:48;95368.94;;;8.48;100.00
22047;BME280;11187;49.412;20.956;2023-05-18T00:34:22;95366.41;;;8.47;100.00
22047;BME280;11187;49.412;20.956;2023-05-18T00:37:15;95365.56;;;8.48;100.00
22047;BME280;11187;49.412;20.956;2023-05-18T00:39:49;95368.13;;;8.49;100.00
22047;BME280;11187;49.412;20.956;2023-05-18T00:42:35;95370.63;;;8.51;100.00
22047;BME280;11187;49.412;20.956;2023-05-18T00:45:09;95365.53;;;8.51;100.00
22047;BME280;11187;49.412;20.956;2023-05-18T00:47:56;95380.00;;;8.52;100.00
22047;BME280;11187;49.412;20.956;2023-05-18T00:50:51;95374.03;;;8.51;100.00
22047;BME280;11187;49.412;20.956;2023-05-18T00:53:45;95375.72;;;8.52;100.00
22047;BME280;11187;49.412;20.956;2023-05-18T00:56:40;95375.72;;;8.52;100.00
22047;BME280;11187;49.412;20.956;2023-05-18T00:59:14;95368.94;;;8.50;100.00
22047;BME280;11187;49.412;20.956;2023-05-18T01:02:01;95368.94;;;8.48;100.00
22047;BME280;11187;49.412;20.956;2023-05-18T01:04:34;95378.31;;;8.48;100.00
22047;BME280;11187;49.412;20.956;2023-05-18T01:07:30;95381.72;;;8.48;100.00
22047;BME280;11187;49.412;20.956;2023-05-18T01:10:05;95391.06;;;8.49;100.00
22047;BME280;11187;49.412;20.956;2023-05-18T01:12:57;95385.97;;;8.49;100.00
22047;BME280;11187;49.412;20.956;2023-05-18T01:15:37;95374.06;;;8.50;100.00
22047;BME280;11187;49.412;20.956;2023-05-18T01:18:40;95378.28;;;8.51;100.00
22047;BME280;11187;49.412;20.956;2023-05-18T01:24:44;95385.06;;;8.53;100.00
22047;BME280;11187;49.412;20.956;2023-05-18T01:27:41;95380.84;;;8.51;100.00
22047;BME280;11187;49.412;20.956;2023-05-18T01:30:40;95378.31;;;8.49;100.00
22047;BME280;11187;49.412;20.956;2023-05-18T01:33:34;95385.09;;;8.49;100.00
22047;BME280;11187;49.412;20.956;2023-05-18T01:36:07;95385.97;;;8.49;100.00
22047;BME280;11187;49.412;20.956;2023-05-18T01:39:03;95378.31;;;8.46;100.00
22047;BME280;11187;49.412;20.956;2023-05-18T01:41:42;95380.88;;;8.48;100.00
22047;BME280;11187;49.412;20.956;2023-05-18T01:44:36;95385.09;;;8.49;100.00
22047;BME280;11187;49.412;20.956;2023-05-18T01:47:18;95383.41;;;8.48;100.00
22047;BME280;11187;49.412;20.956;2023-05-18T01:50:16;95385.97;;;8.46;100.00
22047;BME280;11187;49.412;20.956;2023-05-18T01:53:24;95383.44;;;8.43;100.00
22047;BME280;11187;49.412;20.956;2023-05-18T01:56:06;95383.41;;;8.45;100.00
22047;BME280;11187;49.412;20.956;2023-05-18T01:59:03;95385.97;;;8.45;100.00
22047;BME280;11187;49.412;20.956;2023-05-18T02:01:59;95379.19;;;8.45;100.00
22047;BME280;11187;49.412;20.956;2023-05-18T02:04:33;95383.41;;;8.45;100.00
22047;BME280;11187;49.412;20.956;2023-05-18T02:07:27;95385.13;;;8.46;100.00
22047;BME280;11187;49.412;20.956;2023-05-18T02:10:00;95382.59;;;8.43;100.00
22047;BME280;11187;49.412;20.956;2023-05-18T02:12:54;95379.19;;;8.44;100.00
22047;BME280;11187;49.412;20.956;2023-05-18T02:15:27;95375.78;;;8.43;100.00
22047;BME280;11187;49.412;20.956;2023-05-18T02:18:20;95387.69;;;8.44;100.00
22047;BME280;11187;49.412;20.956;2023-05-18T02:21:00;95380.91;;;8.43;100.00
22047;BME280;11187;49.412;20.956;2023-05-18T02:23:56;95383.41;;;8.45;100.00
22047;BME280;11187;49.412;20.956;2023-05-18T02:26:31;95377.50;;;8.43;100.00
22047;BME280;11187;49.412;20.956;2023-05-18T02:29:19;95380.91;;;8.42;100.00
22047;BME280;11187;49.412;20.956;2023-05-18T02:31:52;95378.34;;;8.42;100.00
22047;BME280;11187;49.412;20.956;2023-05-18T02:34:39;95379.19;;;8.42;100.00
22047;BME280;11187;49.412;20.956;2023-05-18T02:37:14;95380.91;;;8.43;100.00
22047;BME280;11187;49.412;20.956;2023-05-18T02:40:10;95379.22;;;8.41;100.00
22047;BME280;11187;49.412;20.956;2023-05-18T02:43:04;95374.09;;;8.42;100.00
22047;BME280;11187;49.412;20.956;2023-05-18T02:45:58;95374.94;;;8.41;100.00
22047;BME280;11187;49.412;20.956;2023-05-18T02:48:52;95380.06;;;8.41;100.00
22047;BME280;11187;49.412;20.956;2023-05-18T02:51:46;95381.75;;;8.41;100.00
22047;BME280;11187;49.412;20.956;2023-05-18T02:54:19;95382.59;;;8.41;100.00
22047;BME280;11187;49.412;20.956;2023-05-18T02:57:06;95377.50;;;8.41;100.00
22047;BME280;11187;49.412;20.956;2023-05-18T02:59:41;95375.78;;;8.42;100.00
22047;BME280;11187;49.412;20.956;2023-05-18T03:02:28;95381.75;;;8.41;100.00
22047;BME280;11187;49.412;20.956;2023-05-18T03:05:02;95382.59;;;8.43;100.00
22047;BME280;11187;49.412;20.956;2023-05-18T03:07:50;95385.97;;;8.45;100.00
22047;BME280;11187;49.412;20.956;2023-05-18T03:10:24;95384.28;;;8.44;100.00
22047;BME280;11187;49.412;20.956;2023-05-18T03:13:10;95395.34;;;8.46;100.00
22047;BME280;11187;49.412;20.956;2023-05-18T03:15:44;95391.91;;;8.47;100.00
22047;BME280;11187;49.412;20.956;2023-05-18T03:18:31;95400.41;;;8.49;100.00
22047;BME280;11187;49.412;20.956;2023-05-18T03:21:04;95392.78;;;8.47;100.00
22047;BME280;11187;49.412;20.956;2023-05-18T03:23:53;95398.72;;;8.49;100.00
22047;BME280;11187;49.412;20.956;2023-05-18T03:26:26;95400.41;;;8.50;100.00
22047;BME280;11187;49.412;20.956;2023-05-18T03:29:13;95406.34;;;8.52;100.00
22047;BME280;11187;49.412;20.956;2023-05-18T03:31:46;95404.66;;;8.54;100.00
22047;BME280;11187;49.412;20.956;2023-05-18T03:34:33;95408.03;;;8.55;100.00
22047;BME280;11187;49.412;20.956;2023-05-18T03:37:07;95413.16;;;8.56;100.00
22047;BME280;11187;49.412;20.956;2023-05-18T03:39:58;95418.25;;;8.56;100.00
22047;BME280;11187;49.412;20.956;2023-05-18T03:42:32;95408.88;;;8.55;100.00
22047;BME280;11187;49.412;20.956;2023-05-18T03:45:19;95419.09;;;8.55;100.00
22047;BME280;11187;49.412;20.956;2023-05-18T03:47:52;95414.84;;;8.54;100.00
22047;BME280;11187;49.412;20.956;2023-05-18T03:50:48;95420.78;;;8.53;100.00
22047;BME280;11187;49.412;20.956;2023-05-18T03:53:42;95422.50;;;8.54;100.00
22047;BME280;11187;49.412;20.956;2023-05-18T03:56:36;95425.03;;;8.56;100.00
22047;BME280;11187;49.412;20.956;2023-05-18T03:59:09;95424.19;;;8.59;100.00
22047;BME280;11187;49.412;20.956;2023-05-18T04:02:04;95430.09;;;8.61;100.00
22047;BME280;11187;49.412;20.956;2023-05-18T04:05:00;95433.53;;;8.61;100.00
22047;BME280;11187;49.412;20.956;2023-05-18T04:07:36;95437.75;;;8.61;100.00
22047;BME280;11187;49.412;20.956;2023-05-18T04:10:32;95438.63;;;8.60;100.00
22047;BME280;11187;49.412;20.956;2023-05-18T04:13:26;95445.41;;;8.62;100.00
22047;BME280;11187;49.412;20.956;2023-05-18T04:15:59;95448.84;;;8.61;100.00
22047;BME280;11187;49.412;20.956;2023-05-18T04:18:46;95448.81;;;8.63;100.00
22047;BME280;11187;49.412;20.956;2023-05-18T04:21:19;95454.78;;;8.63;100.00
22047;BME280;11187;49.412;20.956;2023-05-18T04:24:06;95459.91;;;8.63;100.00
22047;BME280;11187;49.412;20.956;2023-05-18T04:27:01;95458.19;;;8.62;100.00
22047;BME280;11187;49.412;20.956;2023-05-18T04:29:48;95457.34;;;8.63;100.00
22047;BME280;11187;49.412;20.956;2023-05-18T04:32:28;95454.78;;;8.62;100.00
22047;BME280;11187;49.412;20.956;2023-05-18T04:35:22;95465.00;;;8.60;100.00
22047;BME280;11187;49.412;20.956;2023-05-18T04:38:18;95469.25;;;8.58;100.00
22047;BME280;11187;49.412;20.956;2023-05-18T04:40:52;95477.75;;;8.60;100.00
22047;BME280;11187;49.412;20.956;2023-05-18T04:43:44;95476.91;;;8.61;100.00
22047;BME280;11187;49.412;20.956;2023-05-18T04:46:17;95486.25;;;8.62;100.00
22047;BME280;11187;49.412;20.956;2023-05-18T04:49:06;95482.03;;;8.60;100.00
22047;BME280;11187;49.412;20.956;2023-05-18T04:51:40;95483.72;;;8.57;100.00
22047;BME280;11187;49.412;20.956;2023-05-18T04:54:36;95481.19;;;8.51;100.00
22047;BME280;11187;49.412;20.956;2023-05-18T04:57:31;95485.47;;;8.52;100.00
22047;BME280;11187;49.412;20.956;2023-05-18T05:00:27;95491.41;;;8.51;100.00
22047;BME280;11187;49.412;20.956;2023-05-18T05:03:01;95487.16;;;8.50;100.00
22047;BME280;11187;49.412;20.956;2023-05-18T05:05:56;95493.16;;;8.49;100.00
22047;BME280;11187;49.412;20.956;2023-05-18T05:08:50;95490.59;;;8.48;100.00
22047;BME280;11187;49.412;20.956;2023-05-18T05:11:23;95489.75;;;8.47;100.00
22047;BME280;11187;49.412;20.956;2023-05-18T05:14:10;95491.44;;;8.48;100.00
22047;BME280;11187;49.412;20.956;2023-05-18T05:16:43;95494.81;;;8.50;100.00
22047;BME280;11187;49.412;20.956;2023-05-18T05:19:38;95499.94;;;8.49;100.00
22047;BME280;11187;49.412;20.956;2023-05-18T05:22:32;95504.16;;;8.53;100.00
22047;BME280;11187;49.412;20.956;2023-05-18T05:25:05;95503.31;;;8.51;100.00
22047;BME280;11187;49.412;20.956;2023-05-18T05:28:00;95502.47;;;8.49;100.00
22047;BME280;11187;49.412;20.956;2023-05-18T05:30:54;95501.63;;;8.48;100.00
22047;BME280;11187;49.412;20.956;2023-05-18T05:33:48;95507.59;;;8.47;100.00
22047;BME280;11187;49.412;20.956;2023-05-18T05:36:42;95505.06;;;8.43;100.00
22047;BME280;11187;49.412;20.956;2023-05-18T05:39:15;95510.16;;;8.41;100.00
22047;BME280;11187;49.412;20.956;2023-05-18T05:42:09;95509.34;;;8.41;100.00
22047;BME280;11187;49.412;20.956;2023-05-18T05:44:42;95509.28;;;8.37;100.00
22047;BME280;11187;49.412;20.956;2023-05-18T05:47:36;95509.31;;;8.34;100.00
22047;BME280;11187;49.412;20.956;2023-05-18T05:50:31;95512.72;;;8.30;100.00
22047;BME280;11187;49.412;20.956;2023-05-18T05:53:25;95521.25;;;8.29;100.00
22047;BME280;11187;49.412;20.956;2023-05-18T05:56:01;95526.31;;;8.31;100.00
22047;BME280;11187;49.412;20.956;2023-05-18T05:58:55;95527.16;;;8.33;100.00
22047;BME280;11187;49.412;20.956;2023-05-18T06:01:49;95534.81;;;8.36;100.00
22047;BME280;11187;49.412;20.956;2023-05-18T06:04:22;95533.97;;;8.37;100.00
22047;BME280;11187;49.412;20.956;2023-05-18T06:07:18;95549.28;;;8.40;100.00
22047;BME280;11187;49.412;20.956;2023-05-18T06:09:51;95541.63;;;8.39;100.00
22047;BME280;11187;49.412;20.956;2023-05-18T06:12:45;95543.31;;;8.38;100.00
22047;BME280;11187;49.412;20.956;2023-05-18T06:15:18;95545.03;;;8.44;100.00
22047;BME280;11187;49.412;20.956;2023-05-18T06:18:14;95545.00;;;8.47;100.00
22047;BME280;11187;49.412;20.956;2023-05-18T06:21:10;95554.38;;;8.48;100.00
22047;BME280;11187;49.412;20.956;2023-05-18T06:24:06;95550.97;;;8.47;100.00
22047;BME280;11187;49.412;20.956;2023-05-18T06:27:03;95555.22;;;8.42;100.00
22047;BME280;11187;49.412;20.956;2023-05-18T06:29:36;95556.91;;;8.35;100.00
22047;BME280;11187;49.412;20.956;2023-05-18T06:32:30;95553.53;;;8.32;100.00
22047;BME280;11187;49.412;20.956;2023-05-18T06:35:26;95562.91;;;8.30;100.00
22047;BME280;11187;49.412;20.956;2023-05-18T06:37:59;95562.03;;;8.34;100.00
22047;BME280;11187;49.412;20.956;2023-05-18T06:40:46;95556.94;;;8.32;100.00
22047;BME280;11187;49.412;20.956;2023-05-18T06:43:19;95565.41;;;8.37;100.00
22047;BME280;11187;49.412;20.956;2023-05-18T06:46:26;95566.28;;;8.38;100.00
22047;BME280;11187;49.412;20.956;2023-05-18T06:49:20;95571.38;;;8.36;100.00
22047;BME280;11187;49.412;20.956;2023-05-18T06:51:53;95568.84;;;8.36;100.00
22047;BME280;11187;49.412;20.956;2023-05-18T06:54:40;95573.94;;;8.36;100.00
22047;BME280;11187;49.412;20.956;2023-05-18T06:57:13;95568.00;;;8.42;100.00
22047;BME280;11187;49.412;20.956;2023-05-18T07:00:00;95570.53;;;8.48;100.00
22047;BME280;11187;49.412;20.956;2023-05-18T07:02:33;95575.63;;;8.54;100.00
22047;BME280;11187;49.412;20.956;2023-05-18T07:05:23;95573.91;;;8.58;100.00
22047;BME280;11187;49.412;20.956;2023-05-18T07:07:59;95576.44;;;8.58;100.00
22047;BME280;11187;49.412;20.956;2023-05-18T07:10:53;95573.03;;;8.61;100.00
22047;BME280;11187;49.412;20.956;2023-05-18T07:13:50;95589.19;;;8.63;100.00
22047;BME280;11187;49.412;20.956;2023-05-18T07:16:25;95586.66;;;8.66;100.00
22047;BME280;11187;49.412;20.956;2023-05-18T07:19:12;95597.75;;;8.54;100.00
22047;BME280;11187;49.412;20.956;2023-05-18T07:21:49;95588.41;;;8.44;100.00
22047;BME280;11187;49.412;20.956;2023-05-18T07:24:38;95590.94;;;8.42;100.00
22047;BME280;11187;49.412;20.956;2023-05-18T07:27:11;95590.94;;;8.39;100.00
22047;BME280;11187;49.412;20.956;2023-05-18T07:29:59;95606.25;;;8.33;100.00
22047;BME280;11187;49.412;20.956;2023-05-18T07:32:32;95604.53;;;8.29;100.00
22047;BME280;11187;49.412;20.956;2023-05-18T07:35:21;95617.31;;;8.24;100.00
22047;BME280;11187;49.412;20.956;2023-05-18T07:37:55;95609.69;;;8.12;100.00
22047;BME280;11187;49.412;20.956;2023-05-18T07:40:49;95610.56;;;8.11;100.00
22047;BME280;11187;49.412;20.956;2023-05-18T07:43:22;95613.06;;;8.12;100.00
22047;BME280;11187;49.412;20.956;2023-05-18T07:46:09;95624.97;;;8.10;100.00
22047;BME280;11187;49.412;20.956;2023-05-18T07:48:42;95619.03;;;8.04;100.00
22047;BME280;11187;49.412;20.956;2023-05-18T07:51:30;95625.00;;;8.03;100.00
22047;BME280;11187;49.412;20.956;2023-05-18T07:54:03;95623.31;;;7.97;100.00
22047;BME280;11187;49.412;20.956;2023-05-18T07:56:50;95623.28;;;7.92;100.00
22047;BME280;11187;49.412;20.956;2023-05-18T07:59:26;95625.81;;;7.92;100.00
22047;BME280;11187;49.412;20.956;2023-05-18T08:02:20;95628.38;;;7.85;100.00
22047;BME280;11187;49.412;20.956;2023-05-18T08:04:53;95615.66;;;7.86;100.00
22047;BME280;11187;49.412;20.956;2023-05-18T08:07:40;95626.69;;;7.91;100.00
22047;BME280;11187;49.412;20.956;2023-05-18T08:10:14;95623.28;;;7.92;100.00
22047;BME280;11187;49.412;20.956;2023-05-18T08:13:01;95623.31;;;7.91;100.00
22047;BME280;11187;49.412;20.956;2023-05-18T08:15:34;95625.84;;;7.89;100.00
22047;BME280;11187;49.412;20.956;2023-05-18T08:18:21;95630.94;;;7.95;100.00
22047;BME280;11187;49.412;20.956;2023-05-18T08:20:54;95628.41;;;7.91;100.00
22047;BME280;11187;49.412;20.956;2023-05-18T08:23:43;95642.00;;;7.88;100.00
22047;BME280;11187;49.412;20.956;2023-05-18T08:26:16;95637.72;;;7.83;100.00
22047;BME280;11187;49.412;20.956;2023-05-18T08:29:03;95643.69;;;7.82;100.00
22047;BME280;11187;49.412;20.956;2023-05-18T08:31:42;95643.69;;;7.82;100.00
22047;BME280;11187;49.412;20.956;2023-05-18T08:34:29;95644.53;;;7.84;100.00
22047;BME280;11187;49.412;20.956;2023-05-18T08:37:02;95647.09;;;7.87;100.00
22047;BME280;11187;49.412;20.956;2023-05-18T08:39:49;95650.50;;;7.90;100.00
22047;BME280;11187;49.412;20.956;2023-05-18T08:42:33;95650.50;;;7.90;100.00
22047;BME280;11187;49.412;20.956;2023-05-18T08:45:35;95659.00;;;7.97;100.00
22047;BME280;11187;49.412;20.956;2023-05-18T08:48:32;95661.53;;;8.03;100.00
22047;BME280;11187;49.412;20.956;2023-05-18T08:51:28;95653.03;;;8.06;100.00
22047;BME280;11187;49.412;20.956;2023-05-18T08:54:04;95666.66;;;8.09;100.00
22047;BME280;11187;49.412;20.956;2023-05-18T08:56:51;95659.84;;;8.13;100.00
22047;BME280;11187;49.412;20.956;2023-05-18T08:59:26;95665.81;;;8.13;100.00
22047;BME280;11187;49.412;20.956;2023-05-18T09:02:17;95666.66;;;8.14;100.00
22047;BME280;11187;49.412;20.956;2023-05-18T09:04:50;95661.53;;;8.17;100.00
22047;BME280;11187;49.412;20.956;2023-05-18T09:07:38;95662.41;;;8.18;100.00
22047;BME280;11187;49.412;20.956;2023-05-18T09:10:13;95648.78;;;8.20;100.00
22047;BME280;11187;49.412;20.956;2023-05-18T09:13:08;95649.66;;;8.22;100.00
22047;BME280;11187;49.412;20.956;2023-05-18T09:16:04;95651.34;;;8.25;100.00
22047;BME280;11187;49.412;20.956;2023-05-18T09:18:58;95647.91;;;8.20;100.00
22047;BME280;11187;49.412;20.956;2023-05-18T09:21:31;95644.53;;;8.16;100.00
22047;BME280;11187;49.412;20.956;2023-05-18T09:24:25;95632.66;;;8.18;100.00
22047;BME280;11187;49.412;20.956;2023-05-18T09:27:20;95629.25;;;8.16;100.00
22047;BME280;11187;49.412;20.956;2023-05-18T09:30:14;95641.13;;;8.22;100.00
22047;BME280;11187;49.412;20.956;2023-05-18T09:32:47;95639.44;;;8.21;100.00
22047;BME280;11187;49.412;20.956;2023-05-18T09:35:35;95636.03;;;8.12;100.00
22047;BME280;11187;49.412;20.956;2023-05-18T09:38:10;95639.44;;;8.16;100.00
22047;BME280;11187;49.412;20.956;2023-05-18T09:41:01;95643.69;;;8.19;100.00
22047;BME280;11187;49.412;20.956;2023-05-18T09:43:34;95654.75;;;8.18;100.00
22047;BME280;11187;49.412;20.956;2023-05-18T09:46:22;95659.00;;;8.20;100.00
22047;BME280;11187;49.412;20.956;2023-05-18T09:48:55;95660.69;;;8.23;100.00
22047;BME280;11187;49.412;20.956;2023-05-18T09:51:49;95663.25;;;8.23;100.00
22047;BME280;11187;49.412;20.956;2023-05-18T09:54:43;95669.19;;;8.17;100.00
22047;BME280;11187;49.412;20.956;2023-05-18T09:57:19;95665.78;;;8.12;100.00
22047;BME280;11187;49.412;20.956;2023-05-18T10:00:06;95664.09;;;8.11;100.00
22047;BME280;11187;49.412;20.956;2023-05-18T10:02:45;95669.19;;;8.12;100.00
22047;BME280;11187;49.412;20.956;2023-05-18T10:05:32;95668.34;;;8.06;100.00
22047;BME280;11187;49.412;20.956;2023-05-18T10:08:06;95673.44;;;8.01;100.00
22047;BME280;11187;49.412;20.956;2023-05-18T10:10:54;95667.47;;;7.96;100.00
22047;BME280;11187;49.412;20.956;2023-05-18T10:13:28;95680.25;;;7.93;100.00
22047;BME280;11187;49.412;20.956;2023-05-18T10:16:16;95676.84;;;7.94;100.00
22047;BME280;11187;49.412;20.956;2023-05-18T10:18:50;95674.28;;;7.91;100.00
22047;BME280;11187;49.412;20.956;2023-05-18T10:21:47;95675.13;;;7.87;100.00
22047;BME280;11187;49.412;20.956;2023-05-18T10:24:22;95684.47;;;7.88;100.00
22047;BME280;11187;49.412;20.956;2023-05-18T10:27:22;95687.88;;;7.91;100.00
22047;BME280;11187;49.412;20.956;2023-05-18T10:30:16;95686.19;;;7.95;100.00
22047;BME280;11187;49.412;20.956;2023-05-18T10:32:49;95683.63;;;7.98;100.00
22047;BME280;11187;49.412;20.956;2023-05-18T10:35:37;95689.59;;;8.02;100.00
22047;BME280;11187;49.412;20.956;2023-05-18T10:38:12;95690.44;;;8.04;100.00
22047;BME280;11187;49.412;20.956;2023-05-18T10:40:59;95693.84;;;8.09;100.00
22047;BME280;11187;49.412;20.956;2023-05-18T10:43:35;95690.44;;;8.10;100.00
22047;BME280;11187;49.412;20.956;2023-05-18T10:46:29;95695.53;;;8.04;100.00
22047;BME280;11187;49.412;20.956;2023-05-18T10:49:25;95684.50;;;8.05;100.00
22047;BME280;11187;49.412;20.956;2023-05-18T10:52:20;95686.19;;;7.98;100.00
22047;BME280;11187;49.412;20.956;2023-05-18T10:54:53;95692.13;;;7.99;100.00
22047;BME280;11187;49.412;20.956;2023-05-18T10:57:45;95692.13;;;7.99;100.00
22047;BME280;11187;49.412;20.956;2023-05-18T11:00:19;95688.72;;;7.98;100.00
22047;BME280;11187;49.412;20.956;2023-05-18T11:03:14;95694.69;;;8.03;100.00
22047;BME280;11187;49.412;20.956;2023-05-18T11:08:57;95693.84;;;8.00;100.00
22047;BME280;11187;49.412;20.956;2023-05-18T11:11:52;95687.03;;;8.00;100.00
22047;BME280;11187;49.412;20.956;2023-05-18T11:14:31;95689.59;;;8.03;100.00
22047;BME280;11187;49.412;20.956;2023-05-18T11:17:20;95685.31;;;8.04;100.00
22047;BME280;11187;49.412;20.956;2023-05-18T11:28:27;95697.25;;;8.11;100.00
22047;BME280;11187;49.412;20.956;2023-05-18T11:31:44;95698.97;;;8.13;100.00
22047;BME280;11187;49.412;20.956;2023-05-18T11:34:45;95699.78;;;8.12;100.00
22047;BME280;11187;49.412;20.956;2023-05-18T11:37:50;95704.06;;;8.04;100.00
22047;BME280;11187;49.412;20.956;2023-05-18T11:40:45;95705.72;;;8.04;100.00
22047;BME280;11187;49.412;20.956;2023-05-18T11:43:39;95709.97;;;7.99;100.00
22047;BME280;11187;49.412;20.956;2023-05-18T11:46:33;95703.19;;;7.98;100.00
22047;BME280;11187;49.412;20.956;2023-05-18T11:49:46;95705.72;;;7.99;100.00
22047;BME280;11187;49.412;20.956;2023-05-18T11:52:47;95708.28;;;8.01;100.00
22047;BME280;11187;49.412;20.956;2023-05-18T11:55:36;95706.59;;;8.04;100.00
22047;BME280;11187;49.412;20.956;2023-05-18T11:58:24;95709.13;;;8.01;100.00
22047;BME280;11187;49.412;20.956;2023-05-18T12:00:57;95706.59;;;8.00;100.00
22047;BME280;11187;49.412;20.956;2023-05-18T12:03:52;95710.00;;;8.00;100.00
22047;BME280;11187;49.412;20.956;2023-05-18T12:06:26;95710.00;;;8.05;100.00
22047;BME280;11187;49.412;20.956;2023-05-18T12:09:21;95711.69;;;8.07;100.00
22047;BME280;11187;49.412;20.956;2023-05-18T12:11:54;95718.50;;;8.07;100.00
22047;BME280;11187;49.412;20.956;2023-05-18T12:14:53;95724.44;;;8.03;100.00
22047;BME280;11187;49.412;20.956;2023-05-18T12:17:48;95725.28;;;8.00;100.00
22047;BME280;11187;49.412;20.956;2023-05-18T12:20:22;95731.25;;;8.02;100.00
22047;BME280;11187;49.412;20.956;2023-05-18T12:23:16;95729.53;;;8.03;100.00
22047;BME280;11187;49.412;20.956;2023-05-18T12:26:10;95729.53;;;8.00;100.00
22047;BME280;11187;49.412;20.956;2023-05-18T12:29:06;95731.22;;;8.01;100.00
22047;BME280;11187;49.412;20.956;2023-05-18T12:31:39;95728.69;;;8.02;100.00
22047;BME280;11187;49.412;20.956;2023-05-18T12:34:29;95723.59;;;8.02;100.00
22047;BME280;11187;49.412;20.956;2023-05-18T12:37:02;95727.00;;;8.00;100.00
22047;BME280;11187;49.412;20.956;2023-05-18T12:39:52;95724.44;;;8.03;100.00
22047;BME280;11187;49.412;20.956;2023-05-18T12:42:25;95720.19;;;8.05;100.00
22047;BME280;11187;49.412;20.956;2023-05-18T12:45:12;95727.00;;;8.12;100.00
22047;BME280;11187;49.412;20.956;2023-05-18T12:47:45;95723.59;;;8.16;100.00
22047;BME280;11187;49.412;20.956;2023-05-18T12:50:47;95733.81;;;8.13;100.00
22047;BME280;11187;49.412;20.956;2023-05-18T12:53:21;95723.63;;;8.13;100.00
22047;BME280;11187;49.412;20.956;2023-05-18T12:56:08;95733.81;;;8.18;100.00
22047;BME280;11187;49.412;20.956;2023-05-18T12:59:04;95727.84;;;8.17;100.00
22047;BME280;11187;49.412;20.956;2023-05-18T13:01:52;95732.09;;;8.16;100.00
22047;BME280;11187;49.412;20.956;2023-05-18T13:04:33;95732.94;;;8.14;100.00
22047;BME280;11187;49.412;20.956;2023-05-18T13:07:20;95732.09;;;8.15;100.00
22047;BME280;11187;49.412;20.956;2023-05-18T13:10:09;95728.69;;;8.14;100.00
22047;BME280;11187;49.412;20.956;2023-05-18T13:12:56;95728.69;;;8.05;100.00
22047;BME280;11187;49.412;20.956;2023-05-18T13:15:36;95731.25;;;8.05;100.00
22047;BME280;11187;49.412;20.956;2023-05-18T13:18:30;95731.25;;;8.10;100.00
22047;BME280;11187;49.412;20.956;2023-05-18T13:21:24;95730.41;;;8.11;100.00
22047;BME280;11187;49.412;20.956;2023-05-18T13:23:57;95731.25;;;8.02;100.00
22047;BME280;11187;49.412;20.956;2023-05-18T13:26:44;95726.97;;;8.06;100.00
22047;BME280;11187;49.412;20.956;2023-05-18T13:29:17;95732.09;;;8.06;100.00
22047;BME280;11187;49.412;20.956;2023-05-18T13:32:13;95734.63;;;8.06;100.00
22047;BME280;11187;49.412;20.956;2023-05-18T13:34:46;95733.78;;;8.01;100.00
22047;BME280;11187;49.412;20.956;2023-05-18T13:37:40;95737.19;;;7.98;100.00
22047;BME280;11187;49.412;20.956;2023-05-18T13:40:34;95740.59;;;7.95;100.00
22047;BME280;11187;49.412;20.956;2023-05-18T13:43:07;95740.56;;;7.89;100.00
22047;BME280;11187;49.412;20.956;2023-05-18T13:45:54;95738.88;;;7.88;100.00
22047;BME280;11187;49.412;20.956;2023-05-18T13:48:27;95736.31;;;7.84;100.00
22047;BME280;11187;49.412;20.956;2023-05-18T13:51:14;95735.44;;;7.85;100.00
22047;BME280;11187;49.412;20.956;2023-05-18T13:53:47;95732.06;;;7.81;100.00
22047;BME280;11187;49.412;20.956;2023-05-18T13:56:34;95740.53;;;7.77;100.00
22047;BME280;11187;49.412;20.956;2023-05-18T13:59:07;95731.19;;;7.76;100.00
22047;BME280;11187;49.412;20.956;2023-05-18T14:01:55;95741.38;;;7.78;100.00
22047;BME280;11187;49.412;20.956;2023-05-18T14:04:28;95746.47;;;7.73;100.00
22047;BME280;11187;49.412;20.956;2023-05-18T14:07:15;95743.91;;;7.64;100.00
22047;BME280;11187;49.412;20.956;2023-05-18T14:09:49;95737.97;;;7.63;100.00
22047;BME280;11187;49.412;20.956;2023-05-18T14:12:36;95748.97;;;7.62;100.00
22047;BME280;11187;49.412;20.956;2023-05-18T14:15:10;95733.69;;;7.61;100.00
22047;BME280;11187;49.412;20.956;2023-05-18T14:17:57;95746.44;;;7.59;100.00
22047;BME280;11187;49.412;20.956;2023-05-18T14:20:30;95743.84;;;7.56;100.00
22047;BME280;11187;49.412;20.956;2023-05-18T14:23:10;95744.72;;;7.57;100.00
22047;BME280;11187;49.412;20.956;2023-05-18T14:25:50;95743.03;;;7.57;100.00
22047;BME280;11187;49.412;20.956;2023-05-18T14:28:23;95744.72;;;7.60;100.00
22047;BME280;11187;49.412;20.956;2023-05-18T14:31:10;95745.59;;;7.59;100.00
22047;BME280;11187;49.412;20.956;2023-05-18T14:33:43;95737.94;;;7.60;100.00
22047;BME280;11187;49.412;20.956;2023-05-18T14:36:30;95743.88;;;7.62;100.00
22047;BME280;11187;49.412;20.956;2023-05-18T14:39:03;95746.44;;;7.64;100.00